6OI5 weather

Mitchell Airport
Plain City, Ohio, United States

Public forecast

Using degrees Fahrenheit for public forecast. Weather courtesy of forecast.io.

Closest aviation weather report (METAR) to Mitchell Airport

Closest report is The Ohio State University Airport - Don Scott Field, 7.5 nm (13.9 km) ESE. Retrieved 2020/06/04 00:53 UTC (59 minutes ago):

KOSU 040053Z 24003KT 10SM SCT070 27/14 A2982 RMK AO2 SLP089 T02720144

Closest aviation forecast (TAF) to Mitchell Airport

Closest forecast is John Glenn Columbus International Airport, 17.2 nm (31.8 km) ESE. Retrieved 2020-06-04 00:51 UTC (1 hour ago):

TAF KCMH 032348Z 0400/0424 31012KT P6SM SCT050 FM040300 24003KT P6SM VCSH OVC050 FM040800 34003KT P6SM -SHRA VCTS OVC035CB FM041300 28006KT P6SM SCT025 OVC035 FM041800 26007KT P6SM VCTS BKN035CB